createdAt,value
2023-03-02T00:01:03.812Z,1.37
2023-03-02T00:03:33.509Z,1.29
2023-03-02T00:06:01.993Z,1.28
2023-03-02T00:08:30.101Z,1.14
2023-03-02T00:11:00.983Z,1.11
2023-03-02T00:13:31.449Z,1.15
2023-03-02T00:16:00.809Z,1.12
2023-03-02T00:18:30.119Z,1.05
2023-03-02T00:20:58.157Z,1.05
2023-03-02T00:23:26.183Z,1.03
2023-03-02T00:25:54.268Z,0.99
2023-03-02T00:28:22.198Z,0.93
2023-03-02T00:30:50.276Z,0.90
2023-03-02T00:33:19.955Z,0.83
2023-03-02T00:35:48.140Z,0.82
2023-03-02T00:38:16.297Z,0.82
2023-03-02T00:40:48.777Z,0.77
2023-03-02T00:43:17.141Z,0.81
2023-03-02T00:45:45.102Z,0.82
2023-03-02T00:48:13.066Z,0.84
2023-03-02T00:50:42.615Z,0.84
2023-03-02T00:53:11.408Z,0.80
2023-03-02T00:55:39.585Z,0.77
2023-03-02T00:58:07.585Z,0.74
2023-03-02T01:00:35.677Z,0.68
2023-03-02T01:03:03.636Z,0.63
2023-03-02T01:05:31.600Z,0.59
2023-03-02T01:08:01.019Z,0.56
2023-03-02T01:10:29.126Z,0.49
2023-03-02T01:12:57.118Z,0.49
2023-03-02T01:15:25.145Z,0.42
2023-03-02T01:17:53.138Z,0.36
2023-03-02T01:20:21.219Z,0.36
2023-03-02T01:22:49.168Z,0.34
2023-03-02T01:25:18.730Z,0.34
2023-03-02T01:27:46.746Z,0.32
2023-03-02T01:30:15.381Z,0.31
2023-03-02T01:32:43.334Z,0.35
2023-03-02T01:35:11.928Z,0.38
2023-03-02T01:37:39.894Z,0.43
2023-03-02T01:40:09.532Z,0.42
2023-03-02T01:42:41.937Z,0.47
2023-03-02T01:45:54.791Z,0.43
2023-03-02T01:48:28.820Z,0.42
2023-03-02T01:50:57.187Z,0.44
2023-03-02T01:53:28.592Z,0.43
2023-03-02T01:55:57.380Z,0.43
2023-03-02T01:58:28.171Z,0.41
2023-03-02T02:00:57.629Z,0.39
2023-03-02T02:03:28.521Z,0.37
2023-03-02T02:06:07.090Z,0.36
2023-03-02T02:08:35.276Z,0.36
2023-03-02T02:11:03.238Z,0.38
2023-03-02T02:13:33.612Z,0.41
2023-03-02T02:16:01.924Z,0.38
2023-03-02T02:18:29.899Z,0.32
2023-03-02T02:20:58.544Z,0.40
2023-03-02T02:23:29.467Z,0.39
2023-03-02T02:26:11.488Z,0.38
2023-03-02T02:28:44.358Z,0.33
2023-03-02T02:31:17.544Z,0.29
2023-03-02T02:33:49.133Z,0.27
2023-03-02T02:36:21.705Z,0.22
2023-03-02T02:38:53.428Z,0.26
2023-03-02T02:41:25.911Z,0.22
2023-03-02T02:43:55.077Z,0.19
2023-03-02T02:46:23.983Z,0.14
2023-03-02T02:48:51.995Z,0.14
2023-03-02T02:51:25.185Z,0.08
2023-03-02T02:53:58.873Z,0.10
2023-03-02T02:56:31.876Z,0.06
2023-03-02T02:59:05.315Z,0.02
2023-03-02T03:01:35.248Z,0.04
2023-03-02T03:04:06.049Z,-0.02
2023-03-02T03:06:42.315Z,0.00
2023-03-02T03:09:12.580Z,-0.02
2023-03-02T03:11:44.627Z,-0.01
2023-03-02T03:14:15.360Z,-0.05
2023-03-02T03:16:45.103Z,-0.07
2023-03-02T03:19:19.115Z,-0.08
2023-03-02T03:21:48.750Z,-0.05
2023-03-02T03:24:16.478Z,-0.07
2023-03-02T03:26:46.383Z,-0.07
2023-03-02T03:29:15.874Z,-0.08
2023-03-02T03:31:43.712Z,-0.09
2023-03-02T03:34:12.424Z,-0.10
2023-03-02T03:36:42.149Z,-0.02
2023-03-02T03:39:10.674Z,-0.06
2023-03-02T03:41:38.874Z,-0.10
2023-03-02T03:44:08.436Z,-0.07
2023-03-02T03:46:36.742Z,-0.04
2023-03-02T03:49:04.829Z,-0.05
2023-03-02T03:51:35.527Z,-0.07
2023-03-02T03:54:04.764Z,-0.07
2023-03-02T03:56:35.084Z,-0.04
2023-03-02T03:59:07.412Z,-0.04
2023-03-02T04:01:38.794Z,-0.03
2023-03-02T04:04:08.672Z,-0.03
2023-03-02T04:06:36.450Z,0.01
2023-03-02T04:09:04.773Z,-0.02
2023-03-02T04:11:33.081Z,-0.06
2023-03-02T04:14:00.985Z,-0.02
2023-03-02T04:16:29.863Z,-0.01
2023-03-02T04:18:59.398Z,-0.05
2023-03-02T04:21:27.598Z,-0.02
2023-03-02T04:23:55.389Z,-0.06
2023-03-02T04:26:23.165Z,-0.11
2023-03-02T04:28:51.699Z,-0.11
2023-03-02T04:31:19.521Z,-0.14
2023-03-02T04:33:47.351Z,-0.17
2023-03-02T04:36:16.527Z,-0.18
2023-03-02T04:38:44.223Z,-0.23
2023-03-02T04:41:12.051Z,-0.18
2023-03-02T04:43:39.736Z,-0.18
2023-03-02T04:46:07.628Z,-0.19
2023-03-02T04:48:35.640Z,-0.22
2023-03-02T04:51:03.416Z,-0.31
2023-03-02T04:53:32.609Z,-0.30
2023-03-02T04:56:00.506Z,-0.34
2023-03-02T04:58:28.307Z,-0.36
2023-03-02T05:01:02.106Z,-0.37
2023-03-02T05:03:30.110Z,-0.34
2023-03-02T05:05:57.963Z,-0.30
2023-03-02T05:08:25.724Z,-0.35
2023-03-02T05:10:54.790Z,-0.29
2023-03-02T05:13:22.804Z,-0.34
2023-03-02T05:15:51.690Z,-0.41
2023-03-02T05:18:20.445Z,-0.40
2023-03-02T05:20:48.146Z,-0.43
2023-03-02T05:23:25.293Z,-0.38
2023-03-02T05:25:56.244Z,-0.45
2023-03-02T05:28:26.114Z,-0.49
2023-03-02T05:30:54.286Z,-0.50
2023-03-02T05:33:22.328Z,-0.43
2023-03-02T05:35:50.206Z,-0.44
2023-03-02T05:38:18.123Z,-0.45
2023-03-02T05:40:46.494Z,-0.49
2023-03-02T05:43:18.456Z,-0.50
2023-03-02T05:45:46.529Z,-0.51
2023-03-02T05:48:15.556Z,-0.47
2023-03-02T05:50:43.411Z,-0.52
2023-03-02T05:53:11.177Z,-0.53
2023-03-02T05:55:38.901Z,-0.59
2023-03-02T05:58:09.088Z,-0.58
2023-03-02T06:00:38.327Z,-0.59
2023-03-02T06:03:06.105Z,-0.61
2023-03-02T06:05:34.082Z,-0.68
2023-03-02T06:08:02.172Z,-0.66
2023-03-02T06:10:29.890Z,-0.59
2023-03-02T06:12:58.579Z,-0.68
2023-03-02T06:15:29.776Z,-0.69
2023-03-02T06:17:59.105Z,-0.71
2023-03-02T06:20:27.465Z,-0.67
2023-03-02T06:22:55.760Z,-0.69
2023-03-02T06:25:25.021Z,-0.67
2023-03-02T06:27:53.829Z,-0.73
2023-03-02T06:30:24.189Z,-0.70
2023-03-02T06:32:52.220Z,-0.67
2023-03-02T06:35:21.709Z,-0.62
2023-03-02T06:37:49.535Z,-0.63
2023-03-02T06:40:17.364Z,-0.61
2023-03-02T06:42:45.187Z,-0.64
2023-03-02T06:45:13.244Z,-0.61
2023-03-02T06:47:41.114Z,-0.47
2023-03-02T06:50:10.601Z,-0.46
2023-03-02T06:52:39.955Z,-0.34
2023-03-02T06:55:08.839Z,-0.40
2023-03-02T06:57:36.581Z,-0.35
2023-03-02T07:00:09.997Z,-0.33
2023-03-02T07:02:38.600Z,-0.32
2023-03-02T07:05:07.772Z,-0.24
2023-03-02T07:07:35.666Z,-0.14
2023-03-02T07:10:05.430Z,-0.07
2023-03-02T07:12:33.173Z,0.02
2023-03-02T07:15:00.884Z,0.02
2023-03-02T07:17:28.671Z,0.10
2023-03-02T07:19:56.578Z,0.14
2023-03-02T07:22:24.283Z,0.24
2023-03-02T07:24:51.983Z,0.25
2023-03-02T07:27:21.114Z,0.38
2023-03-02T07:29:48.907Z,0.46
2023-03-02T07:32:16.703Z,0.46
2023-03-02T07:34:44.511Z,0.64
2023-03-02T07:37:12.246Z,0.88
2023-03-02T07:39:39.945Z,1.50
2023-03-02T07:42:09.079Z,1.74
2023-03-02T07:44:38.236Z,2.09
2023-03-02T07:47:06.112Z,2.39
2023-03-02T07:49:35.374Z,2.72
2023-03-02T07:52:03.572Z,3.10
2023-03-02T07:54:31.479Z,3.45
2023-03-02T07:56:59.446Z,3.50
2023-03-02T07:59:28.391Z,3.86
2023-03-02T08:01:58.403Z,3.94
2023-03-02T08:04:26.659Z,4.02
2023-03-02T08:06:54.484Z,4.18
2023-03-02T08:09:22.316Z,4.25
2023-03-02T08:11:50.121Z,4.55
2023-03-02T08:14:18.049Z,4.69
2023-03-02T08:16:45.851Z,4.83
2023-03-02T08:19:15.082Z,4.86
2023-03-02T08:21:43.105Z,4.95
2023-03-02T08:24:11.100Z,5.10
2023-03-02T08:26:39.259Z,5.13
2023-03-02T08:29:07.993Z,5.17
2023-03-02T08:31:36.226Z,5.17
2023-03-02T08:34:04.273Z,5.17
2023-03-02T08:36:33.802Z,5.24
2023-03-02T08:39:01.706Z,5.35
2023-03-02T08:41:30.624Z,5.40
2023-03-02T08:43:59.076Z,5.44
2023-03-02T08:46:27.040Z,5.50
2023-03-02T08:48:54.950Z,5.68
2023-03-02T08:51:25.093Z,5.74
2023-03-02T08:53:56.547Z,5.89
2023-03-02T08:56:26.549Z,6.12
2023-03-02T08:58:56.245Z,6.32
2023-03-02T09:01:26.671Z,6.49
2023-03-02T09:03:54.562Z,6.65
2023-03-02T09:06:22.841Z,6.78
2023-03-02T09:08:50.788Z,6.88
2023-03-02T09:11:20.426Z,7.05
2023-03-02T09:13:48.600Z,7.29
2023-03-02T09:16:16.748Z,7.39
2023-03-02T09:18:44.786Z,7.43
2023-03-02T09:21:12.611Z,7.61
2023-03-02T09:23:40.790Z,7.69
2023-03-02T09:26:09.015Z,7.78
2023-03-02T09:28:39.078Z,7.87
2023-03-02T09:31:08.592Z,8.11
2023-03-02T09:33:36.749Z,8.28
2023-03-02T09:36:07.582Z,8.44
2023-03-02T09:38:35.516Z,8.51
2023-03-02T09:41:33.792Z,8.38
2023-03-02T09:44:25.411Z,8.58
2023-03-02T09:46:57.258Z,8.64
2023-03-02T09:49:34.137Z,8.78
2023-03-02T09:52:11.715Z,8.97
2023-03-02T09:54:41.409Z,9.05
2023-03-02T09:57:22.043Z,9.20
2023-03-02T09:59:55.246Z,9.32
2023-03-02T10:02:28.302Z,9.49
2023-03-02T10:04:58.562Z,9.57
2023-03-02T10:07:29.365Z,9.68
2023-03-02T10:09:59.978Z,9.87
2023-03-02T10:12:49.976Z,9.95
2023-03-02T10:15:24.766Z,9.94
2023-03-02T10:18:03.975Z,10.07
2023-03-02T10:20:35.692Z,10.22
2023-03-02T10:23:16.629Z,10.36
2023-03-02T10:25:49.490Z,10.59
2023-03-02T10:28:19.993Z,10.71
2023-03-02T10:30:54.697Z,10.89
2023-03-02T10:33:23.307Z,11.01
2023-03-02T10:35:53.009Z,11.15
2023-03-02T10:38:23.650Z,11.25
2023-03-02T10:40:57.253Z,11.25
2023-03-02T10:43:31.716Z,11.30
2023-03-02T10:46:02.636Z,11.39
2023-03-02T10:48:30.622Z,11.42
2023-03-02T10:51:00.603Z,11.66
2023-03-02T10:53:29.083Z,11.74
2023-03-02T10:55:56.881Z,11.87
2023-03-02T10:58:27.644Z,11.99
2023-03-02T11:01:02.666Z,12.06
2023-03-02T11:03:31.475Z,12.22
2023-03-02T11:06:00.696Z,12.24
2023-03-02T11:08:31.748Z,12.17
2023-03-02T11:11:01.754Z,12.27
2023-03-02T11:13:31.670Z,12.17
2023-03-02T11:16:02.453Z,12.09
2023-03-02T11:18:35.085Z,12.11
2023-03-02T11:21:06.828Z,12.20
2023-03-02T11:23:42.052Z,12.18
2023-03-02T11:26:19.317Z,12.26
2023-03-02T11:28:53.523Z,12.27
2023-03-02T11:31:33.863Z,12.37
2023-03-02T11:34:17.639Z,12.43
2023-03-02T11:36:56.220Z,12.64
2023-03-02T11:39:30.054Z,12.41
2023-03-02T11:41:58.433Z,12.58
2023-03-02T11:44:27.440Z,12.70
2023-03-02T11:47:01.987Z,12.69
2023-03-02T11:49:38.776Z,13.07
2023-03-02T11:52:17.037Z,13.12
2023-03-02T11:54:47.032Z,13.09
2023-03-02T11:57:22.543Z,13.20
2023-03-02T11:59:52.185Z,13.34
2023-03-02T12:02:21.850Z,13.42
2023-03-02T12:04:49.816Z,13.61
2023-03-02T12:07:22.908Z,13.58
2023-03-02T12:10:06.579Z,13.71
2023-03-02T12:12:41.985Z,13.41
2023-03-02T12:15:28.860Z,13.45
2023-03-02T12:17:58.127Z,13.54
2023-03-02T12:20:31.650Z,13.69
2023-03-02T12:23:11.447Z,13.90
2023-03-02T12:25:43.882Z,14.03
2023-03-02T12:28:28.332Z,13.98
2023-03-02T12:31:05.534Z,14.14
2023-03-02T12:33:42.401Z,14.25
2023-03-02T12:36:17.091Z,14.08
2023-03-02T12:38:51.291Z,14.12
2023-03-02T12:41:32.128Z,14.18
2023-03-02T12:44:16.682Z,14.25
2023-03-02T12:46:46.652Z,14.35
2023-03-02T12:49:35.507Z,14.61
2023-03-02T12:52:05.528Z,14.63
2023-03-02T12:54:35.997Z,14.74
2023-03-02T12:57:08.693Z,14.70
2023-03-02T12:59:37.665Z,14.78
2023-03-02T13:02:13.886Z,15.04
2023-03-02T13:04:43.026Z,15.17
2023-03-02T13:07:24.331Z,14.96
2023-03-02T13:09:57.046Z,15.06
2023-03-02T13:12:27.864Z,15.12
2023-03-02T13:14:57.887Z,15.05
2023-03-02T13:17:29.537Z,14.74
2023-03-02T13:19:59.601Z,14.79
2023-03-02T13:22:28.581Z,14.39
2023-03-02T13:25:00.272Z,14.31
2023-03-02T13:27:28.547Z,14.49
2023-03-02T13:29:57.309Z,14.29
2023-03-02T13:32:28.369Z,14.23
2023-03-02T13:34:59.369Z,14.03
2023-03-02T13:37:39.158Z,14.29
2023-03-02T13:40:09.507Z,14.00
2023-03-02T13:42:39.698Z,14.22
2023-03-02T13:45:22.204Z,14.29
2023-03-02T13:47:50.312Z,14.26
2023-03-02T13:50:21.965Z,14.34
2023-03-02T13:52:50.560Z,13.99
2023-03-02T13:55:20.151Z,13.95
2023-03-02T13:57:49.137Z,14.01
2023-03-02T14:00:20.164Z,14.13
2023-03-02T14:02:48.757Z,14.09
2023-03-02T14:05:21.484Z,14.07
2023-03-02T14:07:49.934Z,14.14
2023-03-02T14:10:19.286Z,13.95
2023-03-02T14:12:54.987Z,14.18
2023-03-02T14:15:22.766Z,14.02
2023-03-02T14:17:50.645Z,14.12
2023-03-02T14:20:21.782Z,14.03
2023-03-02T14:22:50.659Z,14.26
2023-03-02T14:25:19.631Z,14.24
2023-03-02T14:27:48.055Z,14.48
2023-03-02T14:30:19.568Z,14.54
2023-03-02T14:32:47.628Z,14.55
2023-03-02T14:35:16.862Z,14.68
2023-03-02T14:37:49.794Z,14.45
2023-03-02T14:40:22.107Z,14.39
2023-03-02T14:42:51.839Z,14.48
2023-03-02T14:45:21.682Z,14.58
2023-03-02T14:47:49.559Z,14.41
2023-03-02T14:50:17.750Z,14.31
2023-03-02T14:52:49.227Z,14.39
2023-03-02T14:55:25.716Z,14.02
2023-03-02T14:57:56.605Z,14.39
2023-03-02T15:00:25.360Z,14.26
2023-03-02T15:02:53.329Z,14.37
2023-03-02T15:05:21.731Z,14.40
2023-03-02T15:07:53.165Z,14.55
2023-03-02T15:10:23.347Z,14.53
2023-03-02T15:12:51.887Z,14.59
2023-03-02T15:15:19.917Z,14.38
2023-03-02T15:17:47.727Z,14.38
2023-03-02T15:20:17.156Z,14.19
2023-03-02T15:22:45.009Z,14.21
2023-03-02T15:25:14.249Z,14.13
2023-03-02T15:27:42.552Z,14.14
2023-03-02T15:30:12.329Z,13.93
2023-03-02T15:32:40.320Z,13.93
2023-03-02T15:35:09.117Z,13.99
2023-03-02T15:37:36.979Z,13.92
2023-03-02T15:40:05.155Z,14.00
2023-03-02T15:42:34.298Z,13.94
2023-03-02T15:45:02.009Z,13.74
2023-03-02T15:47:29.764Z,13.86
2023-03-02T15:49:57.647Z,13.88
2023-03-02T15:52:25.443Z,13.93
2023-03-02T15:54:53.227Z,13.94
2023-03-02T15:57:21.080Z,13.78
2023-03-02T15:59:50.441Z,13.73
2023-03-02T16:02:18.284Z,13.63
2023-03-02T16:04:46.257Z,13.51
2023-03-02T16:07:13.980Z,13.42
2023-03-02T16:09:41.769Z,13.42
2023-03-02T16:12:09.589Z,13.15
2023-03-02T16:14:37.393Z,13.08
2023-03-02T16:17:06.553Z,13.00
2023-03-02T16:19:34.392Z,12.91
2023-03-02T16:22:02.160Z,12.79
2023-03-02T16:24:29.888Z,12.70
2023-03-02T16:26:57.668Z,12.53
2023-03-02T16:29:25.487Z,12.36
2023-03-02T16:31:53.487Z,12.18
2023-03-02T16:34:22.823Z,11.98
2023-03-02T16:36:50.721Z,11.80
2023-03-02T16:39:18.530Z,11.65
2023-03-02T16:41:47.046Z,11.50
2023-03-02T16:44:16.150Z,11.34
2023-03-02T16:46:44.335Z,11.20
2023-03-02T16:49:13.036Z,11.10
2023-03-02T16:51:42.897Z,10.98
2023-03-02T16:54:12.048Z,10.87
2023-03-02T16:56:41.782Z,10.80
2023-03-02T16:59:09.619Z,10.65
2023-03-02T17:01:37.419Z,10.54
2023-03-02T17:04:06.094Z,10.38
2023-03-02T17:06:34.203Z,10.30
2023-03-02T17:09:03.460Z,10.19
2023-03-02T17:11:32.027Z,10.07
2023-03-02T17:13:59.914Z,10.00
2023-03-02T17:16:27.905Z,9.87
2023-03-02T17:18:55.696Z,9.79
2023-03-02T17:21:24.496Z,9.65
2023-03-02T17:23:52.251Z,9.51
2023-03-02T17:26:21.346Z,9.41
2023-03-02T17:28:49.553Z,9.31
2023-03-02T17:31:17.405Z,9.23
2023-03-02T17:33:45.320Z,9.14
2023-03-02T17:36:13.292Z,9.05
2023-03-02T17:38:41.525Z,8.94
2023-03-02T17:41:10.949Z,8.86
2023-03-02T17:43:42.295Z,8.78
2023-03-02T17:46:12.258Z,8.71
2023-03-02T17:48:40.354Z,8.66
2023-03-02T17:51:08.076Z,8.56
2023-03-02T17:53:35.878Z,8.50
2023-03-02T17:56:03.651Z,8.44
2023-03-02T17:58:44.224Z,8.32
2023-03-02T18:01:15.776Z,8.27
2023-03-02T18:03:45.137Z,8.19
2023-03-02T18:06:13.393Z,8.10
2023-03-02T18:08:41.459Z,8.01
2023-03-02T18:11:09.342Z,7.96
2023-03-02T18:13:37.509Z,7.94
2023-03-02T18:16:05.555Z,7.86
2023-03-02T18:18:34.751Z,7.77
2023-03-02T18:21:02.561Z,7.65
2023-03-02T18:23:30.783Z,7.58
2023-03-02T18:25:59.226Z,7.50
2023-03-02T18:28:27.152Z,7.42
2023-03-02T18:30:54.843Z,7.36
2023-03-02T18:33:22.600Z,7.31
2023-03-02T18:35:51.584Z,7.23
2023-03-02T18:38:19.378Z,7.18
2023-03-02T18:40:47.136Z,7.11
2023-03-02T18:43:14.782Z,7.08
2023-03-02T18:45:42.486Z,7.05
2023-03-02T18:48:10.348Z,7.05
2023-03-02T18:50:39.568Z,7.06
2023-03-02T18:53:09.638Z,6.99
2023-03-02T18:55:38.096Z,6.97
2023-03-02T18:58:05.753Z,6.90
2023-03-02T19:00:34.886Z,6.86
2023-03-02T19:03:02.627Z,6.83
2023-03-02T19:05:30.350Z,6.77
2023-03-02T19:08:00.131Z,6.73
2023-03-02T19:10:29.259Z,6.67
2023-03-02T19:12:57.045Z,6.64
2023-03-02T19:15:24.963Z,6.62
2023-03-02T19:17:53.112Z,6.58
2023-03-02T19:20:22.031Z,6.54
2023-03-02T19:22:49.949Z,6.47
2023-03-02T19:25:17.878Z,6.44
2023-03-02T19:27:47.274Z,6.44
2023-03-02T19:30:19.412Z,6.40
2023-03-02T19:32:47.623Z,6.40
2023-03-02T19:35:17.858Z,6.37
2023-03-02T19:37:45.842Z,6.29
2023-03-02T19:40:15.152Z,6.24
2023-03-02T19:42:45.135Z,6.14
2023-03-02T19:45:17.373Z,6.11
2023-03-02T19:47:47.062Z,6.04
2023-03-02T19:50:16.280Z,6.01
2023-03-02T19:52:44.332Z,5.87
2023-03-02T19:55:13.817Z,5.79
2023-03-02T19:57:42.992Z,5.73
2023-03-02T20:00:16.083Z,5.73
2023-03-02T20:02:45.048Z,5.70
2023-03-02T20:05:13.186Z,5.61
2023-03-02T20:07:41.847Z,5.52
2023-03-02T20:10:11.307Z,5.44
2023-03-02T20:12:39.079Z,5.38
2023-03-02T20:15:08.129Z,5.31
2023-03-02T20:17:37.260Z,5.26
2023-03-02T20:20:05.676Z,5.22
2023-03-02T20:22:33.489Z,5.17
2023-03-02T20:25:01.234Z,5.13
2023-03-02T20:27:29.332Z,5.09
2023-03-02T20:29:57.321Z,5.08
2023-03-02T20:32:25.313Z,5.03
2023-03-02T20:34:54.575Z,4.99
2023-03-02T20:37:25.835Z,4.96
2023-03-02T20:39:54.143Z,4.93
2023-03-02T20:42:22.214Z,4.90
2023-03-02T20:44:50.007Z,4.88
2023-03-02T20:47:17.858Z,4.86
2023-03-02T20:49:45.675Z,4.87
2023-03-02T20:52:15.102Z,4.88
2023-03-02T20:54:43.737Z,4.90
2023-03-02T20:57:15.931Z,4.93
2023-03-02T20:59:45.737Z,4.92
2023-03-02T21:02:15.459Z,4.90
2023-03-02T21:04:43.460Z,4.86
2023-03-02T21:07:12.236Z,4.84
2023-03-02T21:09:41.847Z,4.79
2023-03-02T21:12:11.728Z,4.72
2023-03-02T21:14:40.671Z,4.68
2023-03-02T21:17:09.373Z,4.65
2023-03-02T21:19:37.415Z,4.65
2023-03-02T21:22:05.131Z,4.67
2023-03-02T21:24:32.876Z,4.69
2023-03-02T21:27:02.621Z,4.66
2023-03-02T21:29:30.670Z,4.62
2023-03-02T21:31:58.635Z,4.55
2023-03-02T21:34:26.398Z,4.49
2023-03-02T21:36:54.146Z,4.38
2023-03-02T21:39:23.583Z,4.28
2023-03-02T21:41:51.844Z,4.22
2023-03-02T21:44:21.241Z,4.15
2023-03-02T21:46:49.154Z,4.17
2023-03-02T21:49:18.243Z,4.07
2023-03-02T21:51:48.822Z,4.00
2023-03-02T21:54:17.323Z,3.92
2023-03-02T21:56:45.292Z,3.89
2023-03-02T21:59:13.814Z,3.91
2023-03-02T22:01:43.127Z,3.87
2023-03-02T22:04:11.127Z,3.80
2023-03-02T22:06:38.863Z,3.75
2023-03-02T22:09:06.681Z,3.74
2023-03-02T22:11:36.300Z,3.77
2023-03-02T22:14:12.178Z,3.70
2023-03-02T22:16:45.062Z,3.64
2023-03-02T22:19:21.432Z,3.62
2023-03-02T22:21:50.024Z,3.58
2023-03-02T22:24:23.682Z,3.55
2023-03-02T22:26:59.443Z,3.56
2023-03-02T22:29:29.578Z,3.55
2023-03-02T22:32:10.885Z,3.56
2023-03-02T22:34:38.870Z,3.53
2023-03-02T22:37:13.364Z,3.53
2023-03-02T22:39:42.341Z,3.51
2023-03-02T22:42:14.459Z,3.46
2023-03-02T22:44:42.425Z,3.45
2023-03-02T22:47:16.669Z,3.43
2023-03-02T22:49:44.669Z,3.41
2023-03-02T22:52:15.384Z,3.38
2023-03-02T22:54:43.130Z,3.36
2023-03-02T22:57:30.006Z,3.29
2023-03-02T23:00:28.947Z,3.23
2023-03-02T23:02:58.530Z,3.21
2023-03-02T23:05:30.222Z,3.21
2023-03-02T23:08:15.865Z,3.16
2023-03-02T23:10:43.786Z,3.10
2023-03-02T23:13:12.754Z,3.05
2023-03-02T23:15:41.495Z,3.03
2023-03-02T23:18:23.975Z,3.05
2023-03-02T23:20:52.867Z,3.04
2023-03-02T23:23:22.431Z,2.97
2023-03-02T23:25:50.692Z,2.93
2023-03-02T23:28:18.482Z,2.90
2023-03-02T23:30:47.561Z,2.87
2023-03-02T23:33:16.644Z,2.86
2023-03-02T23:35:44.433Z,2.85
2023-03-02T23:38:12.557Z,2.76
2023-03-02T23:40:41.589Z,2.72
2023-03-02T23:43:09.423Z,2.72
2023-03-02T23:45:39.168Z,2.70
2023-03-02T23:48:07.705Z,2.69
2023-03-02T23:50:37.119Z,2.71
2023-03-02T23:53:05.127Z,2.70
2023-03-02T23:55:33.325Z,2.71
2023-03-02T23:58:00.995Z,2.66
